createdAt,value
2023-01-19T00:00:50.508Z,3.42
2023-01-19T00:03:17.099Z,3.61
2023-01-19T00:05:44.152Z,3.51
2023-01-19T00:08:11.023Z,3.34
2023-01-19T00:10:37.605Z,3.17
2023-01-19T00:13:04.185Z,3.35
2023-01-19T00:15:30.926Z,3.27
2023-01-19T00:17:57.533Z,3.32
2023-01-19T00:20:24.130Z,3.19
2023-01-19T00:22:52.052Z,3.24
2023-01-19T00:25:18.636Z,3.14
2023-01-19T00:27:45.237Z,3.25
2023-01-19T00:30:12.354Z,3.06
2023-01-19T00:32:38.908Z,3.06
2023-01-19T00:35:05.726Z,3.25
2023-01-19T00:37:32.362Z,3.14
2023-01-19T00:39:59.013Z,3.01
2023-01-19T00:42:25.770Z,3.10
2023-01-19T00:44:52.345Z,3.44
2023-01-19T00:47:18.920Z,3.38
2023-01-19T00:49:45.599Z,3.27
2023-01-19T00:52:12.172Z,3.28
2023-01-19T00:54:38.781Z,3.25
2023-01-19T00:57:05.414Z,3.12
2023-01-19T00:59:31.997Z,3.16
2023-01-19T01:01:58.810Z,3.14
2023-01-19T01:04:25.548Z,3.22
2023-01-19T01:06:52.130Z,3.14
2023-01-19T01:09:18.712Z,3.22
2023-01-19T01:11:45.419Z,2.98
2023-01-19T01:14:12.874Z,2.94
2023-01-19T01:16:40.545Z,3.08
2023-01-19T01:19:07.558Z,2.93
2023-01-19T01:21:34.269Z,2.79
2023-01-19T01:24:01.587Z,2.85
2023-01-19T01:26:28.318Z,2.99
2023-01-19T01:28:54.908Z,2.83
2023-01-19T01:31:21.696Z,2.85
2023-01-19T01:33:48.302Z,2.89
2023-01-19T01:36:15.005Z,2.99
2023-01-19T01:38:42.145Z,2.80
2023-01-19T01:41:09.432Z,2.72
2023-01-19T01:43:44.257Z,2.75
2023-01-19T01:46:12.057Z,2.81
2023-01-19T01:48:41.479Z,2.80
2023-01-19T01:51:15.947Z,2.93
2023-01-19T01:53:45.986Z,2.90
2023-01-19T01:56:17.724Z,2.75
2023-01-19T01:58:44.635Z,2.61
2023-01-19T02:01:11.405Z,2.45
2023-01-19T02:03:38.165Z,2.46
2023-01-19T02:06:07.045Z,2.57
2023-01-19T02:08:39.605Z,2.57
2023-01-19T02:11:06.880Z,2.26
2023-01-19T02:13:37.229Z,2.25
2023-01-19T02:16:08.018Z,2.31
2023-01-19T02:18:35.365Z,2.43
2023-01-19T02:21:26.772Z,2.33
2023-01-19T02:23:55.760Z,2.23
2023-01-19T02:26:27.219Z,2.40
2023-01-19T02:29:06.539Z,2.01
2023-01-19T02:31:35.589Z,1.80
2023-01-19T02:34:04.047Z,1.96
2023-01-19T02:36:44.728Z,1.99
2023-01-19T02:39:13.229Z,1.85
2023-01-19T02:41:45.233Z,2.06
2023-01-19T02:44:14.846Z,1.92
2023-01-19T02:46:41.737Z,1.77
2023-01-19T02:49:08.304Z,1.76
2023-01-19T02:51:35.698Z,1.65
2023-01-19T02:54:15.364Z,1.74
2023-01-19T02:56:44.761Z,1.62
2023-01-19T02:59:27.488Z,1.89
2023-01-19T03:02:00.821Z,1.81
2023-01-19T03:04:40.687Z,1.74
2023-01-19T03:07:33.944Z,1.81
2023-01-19T03:10:37.702Z,1.70
2023-01-19T03:13:23.902Z,1.67
2023-01-19T03:15:55.354Z,1.69
2023-01-19T03:18:29.068Z,1.80
2023-01-19T03:20:59.331Z,1.75
2023-01-19T03:23:30.679Z,1.62
2023-01-19T03:25:59.654Z,1.37
2023-01-19T03:28:29.690Z,1.51
2023-01-19T03:31:22.594Z,1.46
2023-01-19T03:33:55.508Z,1.58
2023-01-19T03:36:31.360Z,1.43
2023-01-19T03:39:00.948Z,1.40
2023-01-19T03:41:30.535Z,1.52
2023-01-19T03:43:58.494Z,1.39
2023-01-19T03:46:26.644Z,1.66
2023-01-19T03:48:53.588Z,1.26
2023-01-19T03:51:22.076Z,1.49
2023-01-19T03:53:48.654Z,1.14
2023-01-19T03:56:24.593Z,1.28
2023-01-19T03:58:51.819Z,1.14
2023-01-19T04:01:19.841Z,1.04
2023-01-19T04:03:46.526Z,1.04
2023-01-19T04:06:13.207Z,0.89
2023-01-19T04:08:39.791Z,0.82
2023-01-19T04:11:06.908Z,0.85
2023-01-19T04:13:33.805Z,0.92
2023-01-19T04:16:01.594Z,0.92
2023-01-19T04:18:29.631Z,0.89
2023-01-19T04:21:03.008Z,0.97
2023-01-19T04:23:29.706Z,0.98
2023-01-19T04:26:00.436Z,0.86
2023-01-19T04:28:27.540Z,0.82
2023-01-19T04:30:54.385Z,0.49
2023-01-19T04:33:22.027Z,0.62
2023-01-19T04:35:50.693Z,0.62
2023-01-19T04:38:18.188Z,0.61
2023-01-19T04:40:44.774Z,0.65
2023-01-19T04:43:11.493Z,0.71
2023-01-19T04:45:38.085Z,0.62
2023-01-19T04:48:04.901Z,0.69
2023-01-19T04:50:31.790Z,0.67
2023-01-19T04:52:59.097Z,0.78
2023-01-19T04:55:25.844Z,0.75
2023-01-19T04:57:52.529Z,0.70
2023-01-19T05:00:19.226Z,0.61
2023-01-19T05:02:46.000Z,0.63
2023-01-19T05:05:12.998Z,0.57
2023-01-19T05:07:39.630Z,0.73
2023-01-19T05:10:07.304Z,0.64
2023-01-19T05:12:33.890Z,0.66
2023-01-19T05:15:00.579Z,0.74
2023-01-19T05:17:27.316Z,0.68
2023-01-19T05:19:54.029Z,0.68
2023-01-19T05:22:20.723Z,0.82
2023-01-19T05:24:47.366Z,0.71
2023-01-19T05:27:13.971Z,0.55
2023-01-19T05:29:40.638Z,0.56
2023-01-19T05:32:07.354Z,0.61
2023-01-19T05:34:34.449Z,0.79
2023-01-19T05:37:01.035Z,0.76
2023-01-19T05:39:27.611Z,0.68
2023-01-19T05:41:54.404Z,0.82
2023-01-19T05:44:21.006Z,0.92
2023-01-19T05:46:47.649Z,0.97
2023-01-19T05:49:14.455Z,0.91
2023-01-19T05:51:41.043Z,0.92
2023-01-19T05:54:08.420Z,0.96
2023-01-19T05:56:35.260Z,0.91
2023-01-19T05:59:02.458Z,1.06
2023-01-19T06:01:29.217Z,1.09
2023-01-19T06:03:55.820Z,1.13
2023-01-19T06:06:22.799Z,1.08
2023-01-19T06:08:49.390Z,1.17
2023-01-19T06:11:16.069Z,1.19
2023-01-19T06:13:42.658Z,1.15
2023-01-19T06:16:10.029Z,1.12
2023-01-19T06:18:36.703Z,0.79
2023-01-19T06:21:08.752Z,0.91
2023-01-19T06:23:36.463Z,1.07
2023-01-19T06:26:03.628Z,1.06
2023-01-19T06:28:30.664Z,1.23
2023-01-19T06:30:57.795Z,1.18
2023-01-19T06:33:25.211Z,1.23
2023-01-19T06:35:52.113Z,1.11
2023-01-19T06:38:18.800Z,1.07
2023-01-19T06:44:17.841Z,1.02
2023-01-19T06:46:44.720Z,0.91
2023-01-19T06:49:11.570Z,1.03
2023-01-19T06:51:39.370Z,0.99
2023-01-19T06:54:06.241Z,0.88
2023-01-19T06:56:33.334Z,0.93
2023-01-19T06:59:00.340Z,0.97
2023-01-19T07:01:33.957Z,1.14
2023-01-19T07:04:01.719Z,1.16
2023-01-19T07:06:28.312Z,1.05
2023-01-19T07:08:55.061Z,1.14
2023-01-19T07:11:31.832Z,1.16
2023-01-19T07:13:58.776Z,1.38
2023-01-19T07:16:25.637Z,1.35
2023-01-19T07:18:52.326Z,1.32
2023-01-19T07:21:18.955Z,1.31
2023-01-19T07:23:48.914Z,1.38
2023-01-19T07:26:15.528Z,1.43
2023-01-19T07:28:42.161Z,1.46
2023-01-19T07:31:08.982Z,1.31
2023-01-19T07:33:35.703Z,1.15
2023-01-19T07:36:02.322Z,1.28
2023-01-19T07:38:28.959Z,1.30
2023-01-19T07:41:02.627Z,1.27
2023-01-19T07:43:29.425Z,1.30
2023-01-19T07:45:57.421Z,1.36
2023-01-19T07:48:24.220Z,1.39
2023-01-19T07:50:50.966Z,1.63
2023-01-19T07:53:17.723Z,1.44
2023-01-19T07:55:44.360Z,1.44
2023-01-19T07:58:11.011Z,1.53
2023-01-19T08:00:38.487Z,1.55
2023-01-19T08:03:05.541Z,1.53
2023-01-19T08:05:33.570Z,1.44
2023-01-19T08:08:00.276Z,1.44
2023-01-19T08:10:28.149Z,1.43
2023-01-19T08:12:55.976Z,1.53
2023-01-19T08:15:24.266Z,1.64
2023-01-19T08:18:02.355Z,1.59
2023-01-19T08:20:29.630Z,1.59
2023-01-19T08:22:56.278Z,1.50
2023-01-19T08:25:22.874Z,1.45
2023-01-19T08:27:49.474Z,1.44
2023-01-19T08:30:16.525Z,1.56
2023-01-19T08:32:43.312Z,1.57
2023-01-19T08:35:09.968Z,1.66
2023-01-19T08:37:38.931Z,1.79
2023-01-19T08:40:06.207Z,1.49
2023-01-19T08:42:32.791Z,1.49
2023-01-19T08:44:59.365Z,1.52
2023-01-19T08:47:26.055Z,1.59
2023-01-19T08:49:52.646Z,1.44
2023-01-19T08:52:19.292Z,1.62
2023-01-19T08:54:45.896Z,1.79
2023-01-19T08:57:12.535Z,1.65
2023-01-19T08:59:39.120Z,1.74
2023-01-19T09:02:05.775Z,1.72
2023-01-19T09:04:32.388Z,1.73
2023-01-19T09:06:59.013Z,1.83
2023-01-19T09:09:25.664Z,1.60
2023-01-19T09:11:54.194Z,1.74
2023-01-19T09:14:20.799Z,1.76
2023-01-19T09:16:47.539Z,1.73
2023-01-19T09:19:14.252Z,1.73
2023-01-19T09:21:40.823Z,1.86
2023-01-19T09:24:07.679Z,1.77
2023-01-19T09:26:34.250Z,1.78
2023-01-19T09:29:00.855Z,1.96
2023-01-19T09:31:27.498Z,2.05
2023-01-19T09:33:54.142Z,2.11
2023-01-19T09:36:20.801Z,1.74
2023-01-19T09:38:47.412Z,1.78
2023-01-19T09:41:21.787Z,1.75
2023-01-19T09:43:56.821Z,1.80
2023-01-19T09:46:35.457Z,1.85
2023-01-19T09:49:10.546Z,1.95
2023-01-19T09:51:41.927Z,2.09
2023-01-19T09:54:46.907Z,1.87
2023-01-19T09:57:14.137Z,1.82
2023-01-19T09:59:41.947Z,2.16
2023-01-19T10:02:17.668Z,1.88
2023-01-19T10:05:21.523Z,2.04
2023-01-19T10:07:53.950Z,1.87
2023-01-19T10:10:22.028Z,1.88
2023-01-19T10:12:57.544Z,1.88
2023-01-19T10:15:45.537Z,2.12
2023-01-19T10:18:18.491Z,2.25
2023-01-19T10:20:50.517Z,2.21
2023-01-19T10:23:25.386Z,1.74
2023-01-19T10:25:52.296Z,1.80
2023-01-19T10:28:24.310Z,1.85
2023-01-19T10:30:51.871Z,1.83
2023-01-19T10:33:18.695Z,1.89
2023-01-19T10:35:45.474Z,1.86
2023-01-19T10:38:15.077Z,1.80
2023-01-19T10:40:50.168Z,1.92
2023-01-19T10:43:35.026Z,1.85
2023-01-19T10:46:23.194Z,1.73
2023-01-19T10:48:52.120Z,1.84
2023-01-19T10:51:19.022Z,1.48
2023-01-19T10:54:01.157Z,1.32
2023-01-19T10:56:50.958Z,1.46
2023-01-19T10:59:38.544Z,1.42
2023-01-19T11:02:25.324Z,1.35
2023-01-19T11:04:57.630Z,1.00
2023-01-19T11:07:43.026Z,0.89
2023-01-19T11:10:15.599Z,0.97
2023-01-19T11:12:59.048Z,1.14
2023-01-19T11:15:43.219Z,1.07
2023-01-19T11:18:23.272Z,1.15
2023-01-19T11:20:52.969Z,0.77
2023-01-19T11:23:30.660Z,0.75
2023-01-19T11:25:59.412Z,0.75
2023-01-19T11:28:33.400Z,0.84
2023-01-19T11:31:01.029Z,1.06
2023-01-19T11:33:36.858Z,1.15
2023-01-19T11:36:15.979Z,0.89
2023-01-19T11:38:44.780Z,1.07
2023-01-19T11:41:29.589Z,0.97
2023-01-19T11:44:17.440Z,1.19
2023-01-19T11:46:49.889Z,1.07
2023-01-19T11:49:20.871Z,1.23
2023-01-19T11:52:16.824Z,1.16
2023-01-19T11:54:55.877Z,1.19
2023-01-19T11:57:22.527Z,1.14
2023-01-19T11:59:51.886Z,0.96
2023-01-19T12:02:28.561Z,1.03
2023-01-19T12:05:00.453Z,1.05
2023-01-19T12:07:32.522Z,0.94
2023-01-19T12:10:12.275Z,1.08
2023-01-19T12:12:41.221Z,1.01
2023-01-19T12:15:46.221Z,1.05
2023-01-19T12:18:20.012Z,1.04
2023-01-19T12:20:51.232Z,1.11
2023-01-19T12:23:36.395Z,1.27
2023-01-19T12:26:20.706Z,1.20
2023-01-19T12:28:48.870Z,1.35
2023-01-19T12:31:20.953Z,1.36
2023-01-19T12:33:48.257Z,1.43
2023-01-19T12:36:26.877Z,1.15
2023-01-19T12:38:55.974Z,1.22
2023-01-19T12:41:34.271Z,1.32
2023-01-19T12:44:12.888Z,1.31
2023-01-19T12:46:56.371Z,1.35
2023-01-19T12:49:38.260Z,1.23
2023-01-19T12:52:20.002Z,1.13
2023-01-19T12:55:00.879Z,1.10
2023-01-19T12:57:32.063Z,0.95
2023-01-19T13:00:08.766Z,1.27
2023-01-19T13:02:43.904Z,1.26
2023-01-19T13:05:13.592Z,1.21
2023-01-19T13:08:01.723Z,1.19
2023-01-19T13:10:54.120Z,1.17
2023-01-19T13:13:21.585Z,1.09
2023-01-19T13:15:48.273Z,1.02
2023-01-19T13:18:24.839Z,1.15
2023-01-19T13:21:00.193Z,1.07
2023-01-19T13:23:29.441Z,1.07
2023-01-19T13:26:04.308Z,1.34
2023-01-19T13:28:43.521Z,1.28
2023-01-19T13:31:12.472Z,1.68
2023-01-19T13:33:52.667Z,1.42
2023-01-19T13:36:20.576Z,1.27
2023-01-19T13:38:50.392Z,1.09
2023-01-19T13:41:20.957Z,1.12
2023-01-19T13:43:54.964Z,1.23
2023-01-19T13:46:23.149Z,1.17
2023-01-19T13:49:00.154Z,1.13
2023-01-19T13:51:26.990Z,1.01
2023-01-19T13:53:55.029Z,1.17
2023-01-19T13:56:24.075Z,1.02
2023-01-19T13:59:11.050Z,0.99
2023-01-19T14:01:40.038Z,1.27
2023-01-19T14:04:33.549Z,1.05
2023-01-19T14:07:13.510Z,1.00
2023-01-19T14:09:40.185Z,1.00
2023-01-19T14:12:17.030Z,1.22
2023-01-19T14:14:45.940Z,1.29
2023-01-19T14:17:27.623Z,1.17
2023-01-19T14:19:56.618Z,1.24
2023-01-19T14:22:43.274Z,1.09
2023-01-19T14:25:35.601Z,1.16
2023-01-19T14:28:35.451Z,0.88
2023-01-19T14:31:16.682Z,1.05
2023-01-19T14:33:45.478Z,1.07
2023-01-19T14:36:17.585Z,1.00
2023-01-19T14:38:49.583Z,1.00
2023-01-19T14:41:25.129Z,0.99
2023-01-19T14:43:52.121Z,1.07
2023-01-19T14:46:20.787Z,1.35
2023-01-19T14:48:52.875Z,0.94
2023-01-19T14:51:22.927Z,0.88
2023-01-19T14:53:54.324Z,0.69
2023-01-19T14:56:32.300Z,0.65
2023-01-19T14:59:01.026Z,0.67
2023-01-19T15:01:28.493Z,0.60
2023-01-19T15:03:55.563Z,0.66
2023-01-19T15:06:23.910Z,1.03
2023-01-19T15:08:51.276Z,0.83
2023-01-19T15:11:31.217Z,0.79
2023-01-19T15:13:58.881Z,0.85
2023-01-19T15:16:26.881Z,0.98
2023-01-19T15:18:53.580Z,0.81
2023-01-19T15:21:21.931Z,0.79
2023-01-19T15:23:49.236Z,0.72
2023-01-19T15:26:18.068Z,1.00
2023-01-19T15:28:46.105Z,0.85
2023-01-19T15:31:21.744Z,0.89
2023-01-19T15:33:48.462Z,0.85
2023-01-19T15:36:18.235Z,0.87
2023-01-19T15:38:46.112Z,0.65
2023-01-19T15:41:14.523Z,0.69
2023-01-19T15:43:41.131Z,0.69
2023-01-19T15:46:09.396Z,0.67
2023-01-19T15:48:36.175Z,0.65
2023-01-19T15:51:02.785Z,0.69
2023-01-19T15:53:29.459Z,0.53
2023-01-19T15:55:56.271Z,0.78
2023-01-19T15:58:23.700Z,0.76
2023-01-19T16:00:56.030Z,0.47
2023-01-19T16:03:25.580Z,0.51
2023-01-19T16:05:52.175Z,0.52
2023-01-19T16:08:18.908Z,0.33
2023-01-19T16:10:45.554Z,0.53
2023-01-19T16:13:12.602Z,0.83
2023-01-19T16:15:40.163Z,0.82
2023-01-19T16:18:07.066Z,0.49
2023-01-19T16:20:33.868Z,0.35
2023-01-19T16:23:14.375Z,0.37
2023-01-19T16:25:42.435Z,0.33
2023-01-19T16:28:09.219Z,0.48
2023-01-19T16:30:36.039Z,0.39
2023-01-19T16:33:02.740Z,0.36
2023-01-19T16:35:29.345Z,0.43
2023-01-19T16:37:56.045Z,0.37
2023-01-19T16:40:22.633Z,0.37
2023-01-19T16:42:49.252Z,0.43
2023-01-19T16:45:16.123Z,0.24
2023-01-19T16:47:42.926Z,0.34
2023-01-19T16:50:12.854Z,0.55
2023-01-19T16:52:39.726Z,0.47
2023-01-19T16:55:07.083Z,0.39
2023-01-19T16:57:33.683Z,0.40
2023-01-19T17:00:00.279Z,0.28
2023-01-19T17:02:27.098Z,0.34
2023-01-19T17:04:53.816Z,0.44
2023-01-19T17:07:20.415Z,0.36
2023-01-19T17:09:48.168Z,0.38
2023-01-19T17:12:14.760Z,0.43
2023-01-19T17:14:41.376Z,0.27
2023-01-19T17:17:08.072Z,0.42
2023-01-19T17:19:35.317Z,0.39
2023-01-19T17:22:01.954Z,0.58
2023-01-19T17:24:28.519Z,0.47
2023-01-19T17:26:55.127Z,0.40
2023-01-19T17:29:21.713Z,0.28
2023-01-19T17:31:50.850Z,0.57
2023-01-19T17:34:17.528Z,0.54
2023-01-19T17:36:44.249Z,0.29
2023-01-19T17:39:12.745Z,0.33
2023-01-19T17:41:39.365Z,0.49
2023-01-19T17:44:06.887Z,0.26
2023-01-19T17:46:38.004Z,0.27
2023-01-19T17:49:06.708Z,0.26
2023-01-19T17:51:34.111Z,0.20
2023-01-19T17:54:01.363Z,0.32
2023-01-19T17:56:30.114Z,0.37
2023-01-19T17:58:58.327Z,0.28
2023-01-19T18:01:27.783Z,0.14
2023-01-19T18:03:54.833Z,0.10
2023-01-19T18:06:22.254Z,0.09
2023-01-19T18:08:49.817Z,0.26
2023-01-19T18:11:19.778Z,0.22
2023-01-19T18:13:47.611Z,0.19
2023-01-19T18:16:17.832Z,0.09
2023-01-19T18:18:44.443Z,0.02
2023-01-19T18:21:13.371Z,0.07
2023-01-19T18:23:40.911Z,0.04
2023-01-19T18:26:11.078Z,0.14
2023-01-19T18:28:37.766Z,0.40
2023-01-19T18:31:13.377Z,0.21
2023-01-19T18:33:41.051Z,0.15
2023-01-19T18:36:08.854Z,0.18
2023-01-19T18:38:35.927Z,0.48
2023-01-19T18:41:05.312Z,0.51
2023-01-19T18:43:32.429Z,0.49
2023-01-19T18:45:59.345Z,0.22
2023-01-19T18:48:26.218Z,0.25
2023-01-19T18:50:53.418Z,0.16
2023-01-19T18:53:20.779Z,0.20
2023-01-19T18:55:59.228Z,0.34
2023-01-19T18:58:26.386Z,0.21
2023-01-19T19:00:53.060Z,0.14
2023-01-19T19:03:19.725Z,0.01
2023-01-19T19:05:46.353Z,0.18
2023-01-19T19:08:13.078Z,0.11
2023-01-19T19:10:43.763Z,0.09
2023-01-19T19:13:15.319Z,0.12
2023-01-19T19:15:42.015Z,0.06
2023-01-19T19:18:08.624Z,-0.27
2023-01-19T19:20:38.073Z,-0.31
2023-01-19T19:23:04.777Z,-0.14
2023-01-19T19:25:32.333Z,-0.15
2023-01-19T19:27:58.951Z,-0.19
2023-01-19T19:30:25.611Z,-0.28
2023-01-19T19:32:56.949Z,-0.24
2023-01-19T19:35:24.557Z,-0.26
2023-01-19T19:37:51.253Z,-0.08
2023-01-19T19:40:32.933Z,-0.33
2023-01-19T19:42:59.526Z,0.04
2023-01-19T19:45:26.128Z,-0.10
2023-01-19T19:47:52.725Z,-0.27
2023-01-19T19:50:20.958Z,-0.29
2023-01-19T19:52:47.614Z,-0.19
2023-01-19T19:55:14.279Z,-0.33
2023-01-19T19:57:40.932Z,-0.31
2023-01-19T20:00:08.200Z,-0.41
2023-01-19T20:02:34.877Z,-0.43
2023-01-19T20:05:01.521Z,-0.36
2023-01-19T20:07:28.868Z,-0.38
2023-01-19T20:09:55.532Z,-0.32
2023-01-19T20:12:22.292Z,-0.21
2023-01-19T20:14:49.308Z,-0.38
2023-01-19T20:17:15.974Z,-0.29
2023-01-19T20:19:42.581Z,-0.47
2023-01-19T20:22:09.270Z,-0.48
2023-01-19T20:24:35.900Z,-0.52
2023-01-19T20:27:02.513Z,-0.48
2023-01-19T20:29:29.190Z,-0.51
2023-01-19T20:31:56.961Z,-0.31
2023-01-19T20:34:28.009Z,-0.34
2023-01-19T20:36:55.088Z,-0.37
2023-01-19T20:39:23.261Z,-0.29
2023-01-19T20:41:51.447Z,-0.50
2023-01-19T20:44:21.527Z,-0.71
2023-01-19T20:46:48.641Z,-0.60
2023-01-19T20:49:15.481Z,-0.52
2023-01-19T20:51:42.540Z,-0.42
2023-01-19T20:54:11.314Z,-0.42
2023-01-19T20:56:38.295Z,-0.56
2023-01-19T20:59:04.932Z,-0.57
2023-01-19T21:01:31.634Z,-0.48
2023-01-19T21:03:58.375Z,-0.45
2023-01-19T21:06:25.079Z,-0.64
2023-01-19T21:08:51.810Z,-0.61
2023-01-19T21:11:20.274Z,-0.66
2023-01-19T21:13:51.180Z,-0.60
2023-01-19T21:16:17.844Z,-0.38
2023-01-19T21:18:44.468Z,-0.42
2023-01-19T21:21:28.420Z,-0.66
2023-01-19T21:23:57.520Z,-0.55
2023-01-19T21:26:24.128Z,-0.72
2023-01-19T21:28:50.908Z,-0.82
2023-01-19T21:31:17.528Z,-0.78
2023-01-19T21:33:44.150Z,-0.82
2023-01-19T21:36:11.547Z,-0.60
2023-01-19T21:38:39.173Z,-0.52
2023-01-19T21:41:08.396Z,-0.34
2023-01-19T21:43:37.017Z,-0.14
2023-01-19T21:46:17.151Z,-0.24
2023-01-19T21:48:43.845Z,-0.29
2023-01-19T21:51:10.550Z,0.31
2023-01-19T21:53:37.511Z,-0.12
2023-01-19T21:56:08.116Z,-0.48
2023-01-19T21:58:34.764Z,-0.38
2023-01-19T22:01:09.005Z,-0.37
2023-01-19T22:03:36.000Z,-0.56
2023-01-19T22:06:07.391Z,-0.44
2023-01-19T22:08:34.555Z,-0.28
2023-01-19T22:11:06.298Z,-0.19
2023-01-19T22:13:33.882Z,-0.52
2023-01-19T22:16:05.313Z,-0.61
2023-01-19T22:18:31.921Z,-0.63
2023-01-19T22:21:10.853Z,-0.35
2023-01-19T22:23:37.883Z,-0.25
2023-01-19T22:26:05.019Z,-0.13
2023-01-19T22:28:32.239Z,-0.18
2023-01-19T22:31:17.774Z,0.11
2023-01-19T22:33:45.417Z,-0.42
2023-01-19T22:36:18.293Z,-0.33
2023-01-19T22:38:49.193Z,-0.44
2023-01-19T22:41:21.646Z,-0.27
2023-01-19T22:43:49.866Z,-0.63
2023-01-19T22:46:20.824Z,-0.60
2023-01-19T22:48:48.882Z,-0.57
2023-01-19T22:51:19.178Z,-0.18
2023-01-19T22:53:45.930Z,-0.02
2023-01-19T22:56:15.488Z,-0.06
2023-01-19T22:58:43.374Z,-0.33
2023-01-19T23:01:12.316Z,-0.44
2023-01-19T23:03:39.600Z,-0.55
2023-01-19T23:06:11.365Z,-0.42
2023-01-19T23:08:38.965Z,-0.25
2023-01-19T23:11:12.451Z,-0.12
2023-01-19T23:13:39.777Z,0.07
2023-01-19T23:16:07.754Z,0.04
2023-01-19T23:18:34.699Z,-0.15
2023-01-19T23:21:16.011Z,-0.08
2023-01-19T23:23:43.869Z,0.33
2023-01-19T23:26:17.217Z,-0.04
2023-01-19T23:28:44.766Z,-0.20
2023-01-19T23:31:23.260Z,-0.38
2023-01-19T23:33:56.107Z,-0.24
2023-01-19T23:36:25.872Z,-0.32
2023-01-19T23:38:55.297Z,-0.25
2023-01-19T23:41:23.217Z,0.05
2023-01-19T23:43:50.915Z,-0.24
2023-01-19T23:46:19.099Z,-0.28
2023-01-19T23:48:46.735Z,-0.22
2023-01-19T23:51:20.942Z,-0.15
2023-01-19T23:53:47.682Z,-0.07
2023-01-19T23:56:14.289Z,-0.33
2023-01-19T23:58:41.216Z,-0.36
